Главная страница
METAR-TAF:

METAR-TAF

Аэропорты :

Бермудские острова, Бермуды

широта: 32-22N, долгота: 064-41W, высота над уровнем моря: 6 м

Текущие метеонаблюдения

Эта сводка был подготовлена 49 минут назад, в 21:55 UTC
Ветер 12 Узел от южный-юго-западный
Температура 27°C
Влажность 84%
Давление 1019 hPa
Видимость 10 км и более
небольшая облачность на высоте 1400 фута
небольшая облачность на высоте 30000 фута

METAR: TXKF 222155Z 20012KT 9999 FEW014 FEW300 27/24 Q1019

Время: 19:44 (22:44 UTC)

Прогноз

Эта сводка был подготовлена 5 часа и 6 минут назад, в 17:38 UTC
Прогноз действительный с 22-го 18 UTC до 23-го 18 UTC
Ветер 12 Узел от южный-юго-западный
Видимость 10 км и более
небольшая облачность на высоте 2000 фута
Отдельные облака на высоте 30000 фута
Вероятность 30% :
временами
С 22-го 21 UTC до 23-го 12 UTC
Видимость: 6000 м
Рассеянная облачность на высоте 1400 фута
небольшие ливневые дожди

TAF: TXKF 221738Z 2218/2318 21012KT 9999 FEW020 SCT300 PROB30 TEMPO 2221/2312 6000 -SHRA BKN014

Метеонаблюдения и прогнозы для более 4000 аэропортов (сводки METAR и TAF).

Имеющиеся станции представлены на карте желтыми и красными точками.

Чтобы увидеть название станции, наведите на нее мышь.

Затем щелкните, чтобы увидеть метеонаблюдения и метеопрогнозы.

Управление картой: чтобы увеличить масштаб, щелкните зеленые кнопки с черным крестиком; чтобы уменьшить масштаб, щелкните зеленую кнопку с тире; для просмотра соседних карт щелкайте зеленые стрелки.


METAR-TAF: